sensor_id;sensor_type;location;lat;lon;timestamp;P1;durP1;ratioP1;P2;durP2;ratioP2
32826;SDS011;51059;42.058;27.986;2024-02-23T00:01:21;26.20;;;23.60;;
32826;SDS011;51059;42.058;27.986;2024-02-23T00:03:47;27.43;;;23.80;;
32826;SDS011;51059;42.058;27.986;2024-02-23T00:06:13;26.70;;;23.83;;
32826;SDS011;51059;42.058;27.986;2024-02-23T00:08:41;26.57;;;23.87;;
32826;SDS011;51059;42.058;27.986;2024-02-23T00:11:08;28.20;;;24.47;;
32826;SDS011;51059;42.058;27.986;2024-02-23T00:13:34;28.17;;;25.13;;
32826;SDS011;51059;42.058;27.986;2024-02-23T00:16:01;28.00;;;23.97;;
32826;SDS011;51059;42.058;27.986;2024-02-23T00:18:28;29.10;;;26.00;;
32826;SDS011;51059;42.058;27.986;2024-02-23T00:20:54;29.47;;;26.27;;
32826;SDS011;51059;42.058;27.986;2024-02-23T00:23:19;28.93;;;26.00;;
32826;SDS011;51059;42.058;27.986;2024-02-23T00:25:45;29.57;;;26.07;;
32826;SDS011;51059;42.058;27.986;2024-02-23T00:28:11;30.20;;;27.10;;
32826;SDS011;51059;42.058;27.986;2024-02-23T00:30:37;29.47;;;26.37;;
32826;SDS011;51059;42.058;27.986;2024-02-23T00:33:03;29.47;;;26.47;;
32826;SDS011;51059;42.058;27.986;2024-02-23T00:35:29;29.80;;;26.80;;
32826;SDS011;51059;42.058;27.986;2024-02-23T00:37:55;30.77;;;27.67;;
32826;SDS011;51059;42.058;27.986;2024-02-23T00:40:20;29.70;;;26.07;;
32826;SDS011;51059;42.058;27.986;2024-02-23T00:42:48;29.60;;;26.53;;
32826;SDS011;51059;42.058;27.986;2024-02-23T00:45:14;29.83;;;26.70;;
32826;SDS011;51059;42.058;27.986;2024-02-23T00:47:40;29.57;;;26.47;;
32826;SDS011;51059;42.058;27.986;2024-02-23T00:50:06;31.03;;;27.83;;
32826;SDS011;51059;42.058;27.986;2024-02-23T00:52:32;30.60;;;27.27;;
32826;SDS011;51059;42.058;27.986;2024-02-23T00:54:58;30.23;;;27.13;;
32826;SDS011;51059;42.058;27.986;2024-02-23T00:57:30;31.70;;;28.30;;
32826;SDS011;51059;42.058;27.986;2024-02-23T00:59:56;31.30;;;28.00;;
32826;SDS011;51059;42.058;27.986;2024-02-23T01:02:22;32.30;;;28.80;;
32826;SDS011;51059;42.058;27.986;2024-02-23T01:04:48;32.23;;;28.73;;
32826;SDS011;51059;42.058;27.986;2024-02-23T01:07:14;31.73;;;28.43;;
32826;SDS011;51059;42.058;27.986;2024-02-23T01:09:40;31.60;;;28.30;;
32826;SDS011;51059;42.058;27.986;2024-02-23T01:12:06;31.67;;;28.37;;
32826;SDS011;51059;42.058;27.986;2024-02-23T01:14:33;32.33;;;28.83;;
32826;SDS011;51059;42.058;27.986;2024-02-23T01:16:59;31.90;;;28.60;;
32826;SDS011;51059;42.058;27.986;2024-02-23T01:19:25;31.93;;;28.50;;
32826;SDS011;51059;42.058;27.986;2024-02-23T01:21:51;32.53;;;29.03;;
32826;SDS011;51059;42.058;27.986;2024-02-23T01:24:26;31.47;;;28.20;;
32826;SDS011;51059;42.058;27.986;2024-02-23T01:26:56;31.13;;;27.83;;
32826;SDS011;51059;42.058;27.986;2024-02-23T01:29:22;33.03;;;29.27;;
32826;SDS011;51059;42.058;27.986;2024-02-23T01:31:49;32.90;;;29.40;;
32826;SDS011;51059;42.058;27.986;2024-02-23T01:34:16;34.80;;;29.63;;
32826;SDS011;51059;42.058;27.986;2024-02-23T01:36:43;30.97;;;27.50;;
32826;SDS011;51059;42.058;27.986;2024-02-23T01:39:10;33.60;;;28.00;;
32826;SDS011;51059;42.058;27.986;2024-02-23T01:41:36;32.20;;;28.67;;
32826;SDS011;51059;42.058;27.986;2024-02-23T01:44:02;30.93;;;27.53;;
32826;SDS011;51059;42.058;27.986;2024-02-23T01:46:28;32.20;;;28.83;;
32826;SDS011;51059;42.058;27.986;2024-02-23T01:48:54;32.50;;;28.00;;
32826;SDS011;51059;42.058;27.986;2024-02-23T01:51:20;32.10;;;28.70;;
32826;SDS011;51059;42.058;27.986;2024-02-23T01:53:47;32.90;;;28.07;;
32826;SDS011;51059;42.058;27.986;2024-02-23T01:56:13;31.70;;;27.70;;
32826;SDS011;51059;42.058;27.986;2024-02-23T01:58:43;31.53;;;28.23;;
32826;SDS011;51059;42.058;27.986;2024-02-23T02:01:10;32.70;;;29.27;;
32826;SDS011;51059;42.058;27.986;2024-02-23T02:03:39;32.40;;;28.60;;
32826;SDS011;51059;42.058;27.986;2024-02-23T02:06:09;32.10;;;27.60;;
32826;SDS011;51059;42.058;27.986;2024-02-23T02:08:35;32.17;;;28.87;;
32826;SDS011;51059;42.058;27.986;2024-02-23T02:11:02;31.87;;;28.47;;
32826;SDS011;51059;42.058;27.986;2024-02-23T02:13:28;32.43;;;28.93;;
32826;SDS011;51059;42.058;27.986;2024-02-23T02:15:54;32.33;;;28.93;;
32826;SDS011;51059;42.058;27.986;2024-02-23T02:18:20;30.87;;;27.50;;
32826;SDS011;51059;42.058;27.986;2024-02-23T02:20:50;29.67;;;26.60;;
32826;SDS011;51059;42.058;27.986;2024-02-23T02:23:18;29.37;;;26.20;;
32826;SDS011;51059;42.058;27.986;2024-02-23T02:25:44;30.93;;;27.60;;
32826;SDS011;51059;42.058;27.986;2024-02-23T02:28:10;30.90;;;27.53;;
32826;SDS011;51059;42.058;27.986;2024-02-23T02:30:38;31.37;;;28.00;;
32826;SDS011;51059;42.058;27.986;2024-02-23T02:33:03;32.37;;;28.93;;
32826;SDS011;51059;42.058;27.986;2024-02-23T02:35:29;31.03;;;27.70;;
32826;SDS011;51059;42.058;27.986;2024-02-23T02:37:55;30.27;;;27.07;;
32826;SDS011;51059;42.058;27.986;2024-02-23T02:40:21;30.20;;;27.00;;
32826;SDS011;51059;42.058;27.986;2024-02-23T02:42:47;29.97;;;26.77;;
32826;SDS011;51059;42.058;27.986;2024-02-23T02:45:13;32.67;;;29.13;;
32826;SDS011;51059;42.058;27.986;2024-02-23T02:47:39;32.03;;;28.63;;
32826;SDS011;51059;42.058;27.986;2024-02-23T02:50:06;30.97;;;27.67;;
32826;SDS011;51059;42.058;27.986;2024-02-23T02:52:32;28.37;;;25.33;;
32826;SDS011;51059;42.058;27.986;2024-02-23T02:54:58;28.67;;;25.67;;
32826;SDS011;51059;42.058;27.986;2024-02-23T02:57:29;30.63;;;25.60;;
32826;SDS011;51059;42.058;27.986;2024-02-23T02:59:55;27.70;;;24.90;;
32826;SDS011;51059;42.058;27.986;2024-02-23T03:02:21;29.07;;;26.07;;
32826;SDS011;51059;42.058;27.986;2024-02-23T03:04:52;27.07;;;24.17;;
32826;SDS011;51059;42.058;27.986;2024-02-23T03:07:21;27.83;;;24.97;;
32826;SDS011;51059;42.058;27.986;2024-02-23T03:09:47;27.03;;;24.13;;
32826;SDS011;51059;42.058;27.986;2024-02-23T03:12:15;26.87;;;23.90;;
32826;SDS011;51059;42.058;27.986;2024-02-23T03:14:40;25.80;;;23.20;;
32826;SDS011;51059;42.058;27.986;2024-02-23T03:17:09;26.67;;;23.80;;
32826;SDS011;51059;42.058;27.986;2024-02-23T03:19:36;26.27;;;23.53;;
32826;SDS011;51059;42.058;27.986;2024-02-23T03:22:02;26.93;;;24.17;;
32826;SDS011;51059;42.058;27.986;2024-02-23T03:24:28;26.80;;;24.10;;
32826;SDS011;51059;42.058;27.986;2024-02-23T03:26:54;26.67;;;23.83;;
32826;SDS011;51059;42.058;27.986;2024-02-23T03:29:22;27.17;;;24.27;;
32826;SDS011;51059;42.058;27.986;2024-02-23T03:31:56;26.67;;;23.93;;
32826;SDS011;51059;42.058;27.986;2024-02-23T03:34:22;27.27;;;24.30;;
32826;SDS011;51059;42.058;27.986;2024-02-23T03:36:48;27.17;;;24.23;;
32826;SDS011;51059;42.058;27.986;2024-02-23T03:39:14;27.33;;;24.53;;
32826;SDS011;51059;42.058;27.986;2024-02-23T03:41:40;26.57;;;23.83;;
32826;SDS011;51059;42.058;27.986;2024-02-23T03:44:06;27.93;;;24.93;;
32826;SDS011;51059;42.058;27.986;2024-02-23T03:46:32;27.63;;;24.77;;
32826;SDS011;51059;42.058;27.986;2024-02-23T03:48:58;26.43;;;23.63;;
32826;SDS011;51059;42.058;27.986;2024-02-23T03:51:24;28.63;;;24.37;;
32826;SDS011;51059;42.058;27.986;2024-02-23T03:53:50;29.40;;;25.00;;
32826;SDS011;51059;42.058;27.986;2024-02-23T03:56:16;28.73;;;25.60;;
32826;SDS011;51059;42.058;27.986;2024-02-23T03:58:42;26.93;;;24.13;;
32826;SDS011;51059;42.058;27.986;2024-02-23T04:01:08;28.17;;;25.17;;
32826;SDS011;51059;42.058;27.986;2024-02-23T04:03:34;26.60;;;23.90;;
32826;SDS011;51059;42.058;27.986;2024-02-23T04:06:00;27.80;;;24.93;;
32826;SDS011;51059;42.058;27.986;2024-02-23T04:08:26;26.93;;;24.13;;
32826;SDS011;51059;42.058;27.986;2024-02-23T04:10:51;27.13;;;24.23;;
32826;SDS011;51059;42.058;27.986;2024-02-23T04:13:17;28.17;;;25.17;;
32826;SDS011;51059;42.058;27.986;2024-02-23T04:15:43;27.90;;;24.93;;
32826;SDS011;51059;42.058;27.986;2024-02-23T04:18:09;27.43;;;24.63;;
32826;SDS011;51059;42.058;27.986;2024-02-23T04:20:35;27.73;;;24.87;;
32826;SDS011;51059;42.058;27.986;2024-02-23T04:23:01;28.93;;;25.93;;
32826;SDS011;51059;42.058;27.986;2024-02-23T04:25:26;27.33;;;24.43;;
32826;SDS011;51059;42.058;27.986;2024-02-23T04:27:52;30.10;;;25.53;;
32826;SDS011;51059;42.058;27.986;2024-02-23T04:30:18;27.03;;;24.23;;
32826;SDS011;51059;42.058;27.986;2024-02-23T04:32:44;27.20;;;24.30;;
32826;SDS011;51059;42.058;27.986;2024-02-23T04:35:10;26.13;;;23.40;;
32826;SDS011;51059;42.058;27.986;2024-02-23T04:37:37;27.10;;;24.20;;
32826;SDS011;51059;42.058;27.986;2024-02-23T04:40:04;26.87;;;23.97;;
32826;SDS011;51059;42.058;27.986;2024-02-23T04:42:31;26.60;;;23.70;;
32826;SDS011;51059;42.058;27.986;2024-02-23T04:44:57;28.77;;;25.63;;
32826;SDS011;51059;42.058;27.986;2024-02-23T04:47:23;27.90;;;25.00;;
32826;SDS011;51059;42.058;27.986;2024-02-23T04:49:49;26.83;;;24.03;;
32826;SDS011;51059;42.058;27.986;2024-02-23T04:52:15;26.60;;;23.97;;
32826;SDS011;51059;42.058;27.986;2024-02-23T04:54:41;27.60;;;24.73;;
32826;SDS011;51059;42.058;27.986;2024-02-23T04:57:07;26.97;;;24.07;;
32826;SDS011;51059;42.058;27.986;2024-02-23T04:59:33;29.20;;;25.63;;
32826;SDS011;51059;42.058;27.986;2024-02-23T05:01:59;27.70;;;24.80;;
32826;SDS011;51059;42.058;27.986;2024-02-23T05:04:25;31.40;;;26.83;;
32826;SDS011;51059;42.058;27.986;2024-02-23T05:06:52;29.77;;;26.63;;
32826;SDS011;51059;42.058;27.986;2024-02-23T05:09:18;30.77;;;27.00;;
32826;SDS011;51059;42.058;27.986;2024-02-23T05:11:43;33.13;;;26.70;;
32826;SDS011;51059;42.058;27.986;2024-02-23T05:14:11;32.10;;;27.90;;
32826;SDS011;51059;42.058;27.986;2024-02-23T05:16:37;32.10;;;28.57;;
32826;SDS011;51059;42.058;27.986;2024-02-23T05:19:03;30.27;;;27.17;;
32826;SDS011;51059;42.058;27.986;2024-02-23T05:21:29;30.27;;;26.93;;
32826;SDS011;51059;42.058;27.986;2024-02-23T05:23:54;31.03;;;27.30;;
32826;SDS011;51059;42.058;27.986;2024-02-23T05:26:21;30.00;;;26.90;;
32826;SDS011;51059;42.058;27.986;2024-02-23T05:28:47;31.07;;;27.37;;
32826;SDS011;51059;42.058;27.986;2024-02-23T05:31:13;30.43;;;26.70;;
32826;SDS011;51059;42.058;27.986;2024-02-23T05:33:39;29.97;;;26.77;;
32826;SDS011;51059;42.058;27.986;2024-02-23T05:36:05;29.93;;;26.73;;
32826;SDS011;51059;42.058;27.986;2024-02-23T05:38:31;28.67;;;25.60;;
32826;SDS011;51059;42.058;27.986;2024-02-23T05:40:57;29.20;;;26.10;;
32826;SDS011;51059;42.058;27.986;2024-02-23T05:43:22;31.90;;;27.17;;
32826;SDS011;51059;42.058;27.986;2024-02-23T05:45:48;28.30;;;25.37;;
32826;SDS011;51059;42.058;27.986;2024-02-23T05:48:16;30.60;;;26.77;;
32826;SDS011;51059;42.058;27.986;2024-02-23T05:50:45;30.33;;;26.80;;
32826;SDS011;51059;42.058;27.986;2024-02-23T05:53:11;30.43;;;27.10;;
32826;SDS011;51059;42.058;27.986;2024-02-23T05:55:37;29.80;;;26.60;;
32826;SDS011;51059;42.058;27.986;2024-02-23T05:58:03;31.23;;;27.03;;
32826;SDS011;51059;42.058;27.986;2024-02-23T06:00:30;29.53;;;26.43;;
32826;SDS011;51059;42.058;27.986;2024-02-23T06:02:56;29.83;;;26.63;;
32826;SDS011;51059;42.058;27.986;2024-02-23T06:05:22;35.03;;;27.03;;
32826;SDS011;51059;42.058;27.986;2024-02-23T06:07:49;29.47;;;26.20;;
32826;SDS011;51059;42.058;27.986;2024-02-23T06:10:15;30.67;;;25.63;;
32826;SDS011;51059;42.058;27.986;2024-02-23T06:12:41;26.83;;;24.00;;
32826;SDS011;51059;42.058;27.986;2024-02-23T06:15:07;27.53;;;24.63;;
32826;SDS011;51059;42.058;27.986;2024-02-23T06:17:34;28.73;;;25.27;;
32826;SDS011;51059;42.058;27.986;2024-02-23T06:19:59;27.90;;;24.87;;
32826;SDS011;51059;42.058;27.986;2024-02-23T06:22:25;30.90;;;24.97;;
32826;SDS011;51059;42.058;27.986;2024-02-23T06:24:51;26.90;;;23.83;;
32826;SDS011;51059;42.058;27.986;2024-02-23T06:27:17;30.07;;;24.17;;
32826;SDS011;51059;42.058;27.986;2024-02-23T06:29:43;27.13;;;24.13;;
32826;SDS011;51059;42.058;27.986;2024-02-23T06:32:09;27.37;;;23.77;;
32826;SDS011;51059;42.058;27.986;2024-02-23T06:34:35;26.47;;;23.20;;
32826;SDS011;51059;42.058;27.986;2024-02-23T06:37:01;26.93;;;22.83;;
32826;SDS011;51059;42.058;27.986;2024-02-23T06:39:27;28.87;;;23.93;;
32826;SDS011;51059;42.058;27.986;2024-02-23T06:41:53;30.97;;;26.97;;
32826;SDS011;51059;42.058;27.986;2024-02-23T06:44:19;32.57;;;26.63;;
32826;SDS011;51059;42.058;27.986;2024-02-23T06:46:44;30.10;;;26.73;;
32826;SDS011;51059;42.058;27.986;2024-02-23T06:49:10;29.23;;;23.87;;
32826;SDS011;51059;42.058;27.986;2024-02-23T06:51:36;30.43;;;23.67;;
32826;SDS011;51059;42.058;27.986;2024-02-23T06:54:03;28.90;;;23.60;;
32826;SDS011;51059;42.058;27.986;2024-02-23T06:56:29;27.20;;;22.60;;
32826;SDS011;51059;42.058;27.986;2024-02-23T06:58:55;26.73;;;22.87;;
32826;SDS011;51059;42.058;27.986;2024-02-23T07:01:21;27.27;;;22.13;;
32826;SDS011;51059;42.058;27.986;2024-02-23T07:03:47;27.90;;;21.87;;
32826;SDS011;51059;42.058;27.986;2024-02-23T07:06:16;26.73;;;23.17;;
32826;SDS011;51059;42.058;27.986;2024-02-23T07:08:44;27.53;;;21.93;;
32826;SDS011;51059;42.058;27.986;2024-02-23T07:11:10;27.87;;;21.83;;
32826;SDS011;51059;42.058;27.986;2024-02-23T07:13:36;30.77;;;21.80;;
32826;SDS011;51059;42.058;27.986;2024-02-23T07:16:02;25.53;;;21.33;;
32826;SDS011;51059;42.058;27.986;2024-02-23T07:18:28;24.30;;;21.43;;
32826;SDS011;51059;42.058;27.986;2024-02-23T07:20:54;25.57;;;20.70;;
32826;SDS011;51059;42.058;27.986;2024-02-23T07:23:20;22.03;;;19.63;;
32826;SDS011;51059;42.058;27.986;2024-02-23T07:25:46;24.30;;;19.53;;
32826;SDS011;51059;42.058;27.986;2024-02-23T07:28:13;24.00;;;20.57;;
32826;SDS011;51059;42.058;27.986;2024-02-23T07:30:41;23.13;;;19.57;;
32826;SDS011;51059;42.058;27.986;2024-02-23T07:33:07;23.40;;;20.23;;
32826;SDS011;51059;42.058;27.986;2024-02-23T07:35:33;21.80;;;19.47;;
32826;SDS011;51059;42.058;27.986;2024-02-23T07:37:59;24.40;;;20.07;;
32826;SDS011;51059;42.058;27.986;2024-02-23T07:40:27;23.60;;;19.23;;
32826;SDS011;51059;42.058;27.986;2024-02-23T07:42:53;21.77;;;19.40;;
32826;SDS011;51059;42.058;27.986;2024-02-23T07:45:19;19.13;;;17.13;;
32826;SDS011;51059;42.058;27.986;2024-02-23T07:47:44;21.50;;;18.03;;
32826;SDS011;51059;42.058;27.986;2024-02-23T07:50:11;20.93;;;18.67;;
32826;SDS011;51059;42.058;27.986;2024-02-23T07:52:38;22.90;;;19.17;;
32826;SDS011;51059;42.058;27.986;2024-02-23T07:55:04;22.50;;;18.50;;
32826;SDS011;51059;42.058;27.986;2024-02-23T07:57:30;20.63;;;18.20;;
32826;SDS011;51059;42.058;27.986;2024-02-23T07:59:59;21.73;;;18.13;;
32826;SDS011;51059;42.058;27.986;2024-02-23T08:02:24;20.00;;;17.73;;
32826;SDS011;51059;42.058;27.986;2024-02-23T08:04:51;22.70;;;17.73;;
32826;SDS011;51059;42.058;27.986;2024-02-23T08:07:17;21.17;;;16.93;;
32826;SDS011;51059;42.058;27.986;2024-02-23T08:09:43;22.07;;;17.37;;
32826;SDS011;51059;42.058;27.986;2024-02-23T08:12:10;19.23;;;17.03;;
32826;SDS011;51059;42.058;27.986;2024-02-23T08:14:37;22.37;;;18.23;;
32826;SDS011;51059;42.058;27.986;2024-02-23T08:17:03;24.50;;;16.60;;
32826;SDS011;51059;42.058;27.986;2024-02-23T08:19:30;21.23;;;16.73;;
32826;SDS011;51059;42.058;27.986;2024-02-23T08:21:56;20.57;;;17.20;;
32826;SDS011;51059;42.058;27.986;2024-02-23T08:24:22;22.97;;;18.10;;
32826;SDS011;51059;42.058;27.986;2024-02-23T08:26:48;18.67;;;16.43;;
32826;SDS011;51059;42.058;27.986;2024-02-23T08:29:14;19.10;;;16.53;;
32826;SDS011;51059;42.058;27.986;2024-02-23T08:31:40;19.77;;;17.37;;
32826;SDS011;51059;42.058;27.986;2024-02-23T08:34:06;20.80;;;16.83;;
32826;SDS011;51059;42.058;27.986;2024-02-23T08:36:32;17.57;;;15.57;;
32826;SDS011;51059;42.058;27.986;2024-02-23T08:38:58;19.40;;;16.70;;
32826;SDS011;51059;42.058;27.986;2024-02-23T08:41:24;27.40;;;20.53;;
32826;SDS011;51059;42.058;27.986;2024-02-23T08:43:50;22.53;;;19.23;;
32826;SDS011;51059;42.058;27.986;2024-02-23T08:46:16;22.57;;;19.83;;
32826;SDS011;51059;42.058;27.986;2024-02-23T08:48:42;21.50;;;19.07;;
32826;SDS011;51059;42.058;27.986;2024-02-23T08:51:07;27.17;;;20.27;;
32826;SDS011;51059;42.058;27.986;2024-02-23T08:53:34;22.20;;;17.03;;
32826;SDS011;51059;42.058;27.986;2024-02-23T08:56:00;22.17;;;19.43;;
32826;SDS011;51059;42.058;27.986;2024-02-23T08:58:26;26.57;;;22.57;;
32826;SDS011;51059;42.058;27.986;2024-02-23T09:00:52;30.73;;;26.30;;
32826;SDS011;51059;42.058;27.986;2024-02-23T09:03:18;31.43;;;25.37;;
32826;SDS011;51059;42.058;27.986;2024-02-23T09:05:45;26.87;;;22.80;;
32826;SDS011;51059;42.058;27.986;2024-02-23T09:08:12;24.70;;;21.27;;
32826;SDS011;51059;42.058;27.986;2024-02-23T09:10:38;20.97;;;16.60;;
32826;SDS011;51059;42.058;27.986;2024-02-23T09:13:04;17.87;;;15.93;;
32826;SDS011;51059;42.058;27.986;2024-02-23T09:15:30;16.47;;;13.70;;
32826;SDS011;51059;42.058;27.986;2024-02-23T09:17:56;18.93;;;13.23;;
32826;SDS011;51059;42.058;27.986;2024-02-23T09:20:22;13.83;;;11.97;;
32826;SDS011;51059;42.058;27.986;2024-02-23T09:22:48;15.43;;;12.40;;
32826;SDS011;51059;42.058;27.986;2024-02-23T09:25:16;15.67;;;12.20;;
32826;SDS011;51059;42.058;27.986;2024-02-23T09:27:42;13.47;;;12.13;;
32826;SDS011;51059;42.058;27.986;2024-02-23T09:30:13;13.70;;;12.20;;
32826;SDS011;51059;42.058;27.986;2024-02-23T09:32:39;13.77;;;12.07;;
32826;SDS011;51059;42.058;27.986;2024-02-23T09:35:05;15.10;;;12.33;;
32826;SDS011;51059;42.058;27.986;2024-02-23T09:37:33;14.47;;;13.00;;
32826;SDS011;51059;42.058;27.986;2024-02-23T09:39:59;13.93;;;12.40;;
32826;SDS011;51059;42.058;27.986;2024-02-23T09:42:25;15.97;;;12.67;;
32826;SDS011;51059;42.058;27.986;2024-02-23T09:44:57;14.80;;;13.07;;
32826;SDS011;51059;42.058;27.986;2024-02-23T09:47:28;13.87;;;12.53;;
32826;SDS011;51059;42.058;27.986;2024-02-23T09:49:56;13.87;;;12.47;;
32826;SDS011;51059;42.058;27.986;2024-02-23T09:52:22;14.70;;;12.23;;
32826;SDS011;51059;42.058;27.986;2024-02-23T09:54:48;14.60;;;12.53;;
32826;SDS011;51059;42.058;27.986;2024-02-23T09:57:15;14.43;;;12.93;;
32826;SDS011;51059;42.058;27.986;2024-02-23T09:59:43;16.03;;;13.10;;
32826;SDS011;51059;42.058;27.986;2024-02-23T10:02:10;15.43;;;13.83;;
32826;SDS011;51059;42.058;27.986;2024-02-23T10:04:42;21.63;;;14.63;;
32826;SDS011;51059;42.058;27.986;2024-02-23T10:07:09;15.50;;;13.50;;
32826;SDS011;51059;42.058;27.986;2024-02-23T10:09:36;15.10;;;13.50;;
32826;SDS011;51059;42.058;27.986;2024-02-23T10:12:02;14.90;;;13.43;;
32826;SDS011;51059;42.058;27.986;2024-02-23T10:14:28;14.27;;;12.87;;
32826;SDS011;51059;42.058;27.986;2024-02-23T10:16:54;14.30;;;12.90;;
32826;SDS011;51059;42.058;27.986;2024-02-23T10:19:22;15.40;;;13.13;;
32826;SDS011;51059;42.058;27.986;2024-02-23T10:21:48;14.90;;;13.30;;
32826;SDS011;51059;42.058;27.986;2024-02-23T10:24:17;18.50;;;14.10;;
32826;SDS011;51059;42.058;27.986;2024-02-23T10:26:43;19.40;;;14.87;;
32826;SDS011;51059;42.058;27.986;2024-02-23T10:29:09;17.30;;;14.40;;
32826;SDS011;51059;42.058;27.986;2024-02-23T10:31:36;16.07;;;14.47;;
32826;SDS011;51059;42.058;27.986;2024-02-23T10:34:07;16.03;;;14.33;;
32826;SDS011;51059;42.058;27.986;2024-02-23T10:36:41;14.57;;;13.07;;
32826;SDS011;51059;42.058;27.986;2024-02-23T10:39:08;15.37;;;13.60;;
32826;SDS011;51059;42.058;27.986;2024-02-23T10:41:35;15.10;;;13.60;;
32826;SDS011;51059;42.058;27.986;2024-02-23T10:44:04;17.43;;;13.77;;
32826;SDS011;51059;42.058;27.986;2024-02-23T10:46:32;15.20;;;13.53;;
32826;SDS011;51059;42.058;27.986;2024-02-23T10:48:58;14.47;;;12.90;;
32826;SDS011;51059;42.058;27.986;2024-02-23T10:51:25;13.20;;;11.93;;
32826;SDS011;51059;42.058;27.986;2024-02-23T10:53:50;12.80;;;11.50;;
32826;SDS011;51059;42.058;27.986;2024-02-23T10:56:17;12.60;;;10.60;;
32826;SDS011;51059;42.058;27.986;2024-02-23T10:58:44;15.47;;;9.33;;
32826;SDS011;51059;42.058;27.986;2024-02-23T11:01:10;10.37;;;9.37;;
32826;SDS011;51059;42.058;27.986;2024-02-23T11:03:38;10.17;;;9.07;;
32826;SDS011;51059;42.058;27.986;2024-02-23T11:06:08;10.83;;;9.73;;
32826;SDS011;51059;42.058;27.986;2024-02-23T11:08:35;10.83;;;8.90;;
32826;SDS011;51059;42.058;27.986;2024-02-23T11:11:11;10.40;;;9.30;;
32826;SDS011;51059;42.058;27.986;2024-02-23T11:13:37;11.77;;;8.77;;
32826;SDS011;51059;42.058;27.986;2024-02-23T11:16:04;9.73;;;8.77;;
32826;SDS011;51059;42.058;27.986;2024-02-23T11:18:34;10.60;;;9.50;;
32826;SDS011;51059;42.058;27.986;2024-02-23T11:21:04;10.47;;;9.47;;
32826;SDS011;51059;42.058;27.986;2024-02-23T11:23:43;17.47;;;12.87;;
32826;SDS011;51059;42.058;27.986;2024-02-23T11:26:10;21.93;;;15.00;;
32826;SDS011;51059;42.058;27.986;2024-02-23T11:31:13;21.40;;;15.60;;
32826;SDS011;51059;42.058;27.986;2024-02-23T11:33:41;16.93;;;15.13;;
32826;SDS011;51059;42.058;27.986;2024-02-23T11:36:21;17.77;;;14.30;;
32826;SDS011;51059;42.058;27.986;2024-02-23T11:38:59;12.70;;;11.40;;
32826;SDS011;51059;42.058;27.986;2024-02-23T11:41:27;15.50;;;13.10;;
32826;SDS011;51059;42.058;27.986;2024-02-23T11:43:54;24.67;;;15.37;;
32826;SDS011;51059;42.058;27.986;2024-02-23T11:46:22;15.97;;;13.07;;
32826;SDS011;51059;42.058;27.986;2024-02-23T11:48:48;15.33;;;12.70;;
32826;SDS011;51059;42.058;27.986;2024-02-23T11:51:20;11.53;;;10.33;;
32826;SDS011;51059;42.058;27.986;2024-02-23T11:53:47;12.60;;;10.00;;
32826;SDS011;51059;42.058;27.986;2024-02-23T11:56:13;10.23;;;9.07;;
32826;SDS011;51059;42.058;27.986;2024-02-23T11:58:40;11.07;;;7.70;;
32826;SDS011;51059;42.058;27.986;2024-02-23T12:01:06;8.77;;;7.73;;
32826;SDS011;51059;42.058;27.986;2024-02-23T12:03:32;7.83;;;7.03;;
32826;SDS011;51059;42.058;27.986;2024-02-23T12:05:59;7.77;;;6.90;;
32826;SDS011;51059;42.058;27.986;2024-02-23T12:08:26;8.67;;;7.30;;
32826;SDS011;51059;42.058;27.986;2024-02-23T12:10:56;7.63;;;6.43;;
32826;SDS011;51059;42.058;27.986;2024-02-23T12:13:25;8.40;;;7.07;;
32826;SDS011;51059;42.058;27.986;2024-02-23T12:15:58;7.40;;;6.47;;
32826;SDS011;51059;42.058;27.986;2024-02-23T12:18:24;8.40;;;6.50;;
32826;SDS011;51059;42.058;27.986;2024-02-23T12:20:53;6.53;;;5.83;;
32826;SDS011;51059;42.058;27.986;2024-02-23T12:23:18;7.30;;;6.10;;
32826;SDS011;51059;42.058;27.986;2024-02-23T12:25:54;7.60;;;6.20;;
32826;SDS011;51059;42.058;27.986;2024-02-23T12:28:22;9.07;;;6.00;;
32826;SDS011;51059;42.058;27.986;2024-02-23T12:31:05;6.00;;;5.40;;
32826;SDS011;51059;42.058;27.986;2024-02-23T12:33:31;9.13;;;5.70;;
32826;SDS011;51059;42.058;27.986;2024-02-23T12:35:59;5.97;;;5.40;;
32826;SDS011;51059;42.058;27.986;2024-02-23T12:38:26;5.67;;;5.03;;
32826;SDS011;51059;42.058;27.986;2024-02-23T12:40:52;6.73;;;5.27;;
32826;SDS011;51059;42.058;27.986;2024-02-23T12:43:18;6.20;;;4.83;;
32826;SDS011;51059;42.058;27.986;2024-02-23T12:45:47;5.63;;;5.00;;
32826;SDS011;51059;42.058;27.986;2024-02-23T12:48:17;5.60;;;4.90;;
32826;SDS011;51059;42.058;27.986;2024-02-23T12:50:43;5.23;;;4.40;;
32826;SDS011;51059;42.058;27.986;2024-02-23T12:53:55;8.27;;;5.07;;
32826;SDS011;51059;42.058;27.986;2024-02-23T12:56:04;5.47;;;4.70;;
32826;SDS011;51059;42.058;27.986;2024-02-23T12:58:33;5.13;;;4.40;;
32826;SDS011;51059;42.058;27.986;2024-02-23T13:01:00;5.27;;;4.77;;
32826;SDS011;51059;42.058;27.986;2024-02-23T13:03:35;6.43;;;4.70;;
32826;SDS011;51059;42.058;27.986;2024-02-23T13:06:03;5.13;;;4.43;;
32826;SDS011;51059;42.058;27.986;2024-02-23T13:08:30;4.93;;;4.40;;
32826;SDS011;51059;42.058;27.986;2024-02-23T13:10:57;5.17;;;4.53;;
32826;SDS011;51059;42.058;27.986;2024-02-23T13:13:23;8.53;;;4.40;;
32826;SDS011;51059;42.058;27.986;2024-02-23T13:15:50;4.23;;;3.87;;
32826;SDS011;51059;42.058;27.986;2024-02-23T13:18:17;5.10;;;4.03;;
32826;SDS011;51059;42.058;27.986;2024-02-23T13:20:44;4.90;;;4.40;;
32826;SDS011;51059;42.058;27.986;2024-02-23T13:23:10;5.53;;;4.10;;
32826;SDS011;51059;42.058;27.986;2024-02-23T13:25:37;5.73;;;4.03;;
32826;SDS011;51059;42.058;27.986;2024-02-23T13:28:06;6.07;;;4.30;;
32826;SDS011;51059;42.058;27.986;2024-02-23T13:30:35;5.03;;;4.30;;
32826;SDS011;51059;42.058;27.986;2024-02-23T13:33:02;4.27;;;3.83;;
32826;SDS011;51059;42.058;27.986;2024-02-23T13:35:28;8.03;;;4.33;;
32826;SDS011;51059;42.058;27.986;2024-02-23T13:37:55;4.63;;;3.77;;
32826;SDS011;51059;42.058;27.986;2024-02-23T13:40:21;4.57;;;4.10;;
32826;SDS011;51059;42.058;27.986;2024-02-23T13:42:46;4.33;;;3.93;;
32826;SDS011;51059;42.058;27.986;2024-02-23T13:45:15;10.40;;;4.50;;
32826;SDS011;51059;42.058;27.986;2024-02-23T13:47:42;4.10;;;3.70;;
32826;SDS011;51059;42.058;27.986;2024-02-23T13:50:10;4.40;;;3.43;;
32826;SDS011;51059;42.058;27.986;2024-02-23T13:52:37;4.80;;;4.17;;
32826;SDS011;51059;42.058;27.986;2024-02-23T13:55:03;5.67;;;4.37;;
32826;SDS011;51059;42.058;27.986;2024-02-23T13:57:29;6.73;;;3.90;;
32826;SDS011;51059;42.058;27.986;2024-02-23T13:59:56;8.63;;;4.17;;
32826;SDS011;51059;42.058;27.986;2024-02-23T14:02:25;6.93;;;4.43;;
32826;SDS011;51059;42.058;27.986;2024-02-23T14:04:52;6.57;;;4.23;;
32826;SDS011;51059;42.058;27.986;2024-02-23T14:07:20;6.20;;;4.07;;
32826;SDS011;51059;42.058;27.986;2024-02-23T14:09:45;4.40;;;3.80;;
32826;SDS011;51059;42.058;27.986;2024-02-23T14:12:11;4.60;;;4.20;;
32826;SDS011;51059;42.058;27.986;2024-02-23T14:14:37;4.73;;;4.23;;